Time;durP1;ratioP1;P1;durP2;ratioP2;P2;SDS_P1;SDS_P2;PMS_P1;PMS_P2;Temp;Humidity;BMP_temperature;BMP_pressure;BME280_temperature;BME280_humidity;BME280_pressure;Samples;Min_cycle;Max_cycle;Signal;HPM_P1;HPM_P2
2021/07/06 00:00:23;;;;;;;15.18;11.20;;;17.20;99.90;;;;;;5083398;28;20115;-65
2021/07/06 00:02:50;;;;;;;12.98;11.52;;;17.10;99.90;;;;;;5083912;28;21181;-66
2021/07/06 00:05:17;;;;;;;13.40;12.00;;;17.10;99.90;;;;;;5079381;28;20117;-65
2021/07/06 00:07:43;;;;;;;17.77;11.45;;;17.10;99.90;;;;;;5081326;28;20047;-65
2021/07/06 00:10:10;;;;;;;13.93;12.52;;;17.10;99.90;;;;;;5083116;28;20036;-65
2021/07/06 00:12:36;;;;;;;14.65;12.98;;;17.10;99.90;;;;;;5082940;28;20045;-66
2021/07/06 00:15:04;;;;;;;13.07;11.77;;;17.10;99.90;;;;;;5080051;28;20039;-65
2021/07/06 00:17:29;;;;;;;15.82;12.35;;;17.10;99.90;;;;;;5081991;28;20531;-65
2021/07/06 00:19:55;;;;;;;16.30;12.27;;;17.10;99.90;;;;;;5082130;28;20111;-65
2021/07/06 00:22:21;;;;;;;12.90;11.57;;;17.10;99.90;;;;;;5080451;28;20060;-65
2021/07/06 00:24:47;;;;;;;12.50;11.25;;;17.10;99.90;;;;;;5077600;28;20028;-65
2021/07/06 00:27:13;;;;;;;13.95;12.25;;;17.10;99.90;;;;;;5082162;28;20039;-65
2021/07/06 00:29:39;;;;;;;13.30;12.02;;;17.10;99.90;;;;;;5082510;28;20043;-65
2021/07/06 00:32:05;;;;;;;13.77;11.50;;;17.10;99.90;;;;;;5079325;28;20508;-65
2021/07/06 00:34:31;;;;;;;13.70;10.88;;;17.10;99.90;;;;;;5081740;28;20048;-65
2021/07/06 00:36:57;;;;;;;12.98;11.70;;;17.10;99.90;;;;;;5078673;28;20115;-65
2021/07/06 00:39:23;;;;;;;11.52;10.32;;;17.10;99.90;;;;;;5081045;28;20169;-65
2021/07/06 00:41:49;;;;;;;12.20;11.00;;;17.10;99.90;;;;;;5081607;28;20148;-65
2021/07/06 00:44:16;;;;;;;11.98;10.73;;;17.10;99.90;;;;;;5083315;28;20048;-65
2021/07/06 00:46:42;;;;;;;12.35;10.27;;;17.10;99.90;;;;;;5077128;28;20051;-65
2021/07/06 00:49:08;;;;;;;11.10;10.07;;;17.10;99.90;;;;;;5080741;28;20040;-66
2021/07/06 00:51:35;;;;;;;10.93;9.80;;;17.10;99.90;;;;;;5079813;28;20517;-65
2021/07/06 00:54:02;;;;;;;13.02;10.50;;;17.10;99.90;;;;;;5083315;28;20054;-65
2021/07/06 00:56:29;;;;;;;9.88;8.82;;;17.10;99.90;;;;;;5079345;28;20401;-65
2021/07/06 00:58:54;;;;;;;10.23;9.10;;;17.10;99.90;;;;;;5084656;28;20040;-65
2021/07/06 01:01:20;;;;;;;11.13;9.93;;;17.10;99.90;;;;;;5082683;28;20093;-66
2021/07/06 01:03:47;;;;;;;9.32;8.32;;;17.10;99.90;;;;;;5080301;28;20039;-65
2021/07/06 01:06:13;;;;;;;10.90;8.60;;;17.10;99.90;;;;;;5078122;28;20513;-65
2021/07/06 01:08:39;;;;;;;9.43;8.15;;;17.10;99.90;;;;;;5080357;28;20040;-65
2021/07/06 01:11:06;;;;;;;8.60;7.78;;;17.10;99.90;;;;;;5081183;28;20086;-66
2021/07/06 01:13:33;;;;;;;9.55;7.93;;;17.10;99.90;;;;;;5078230;28;20162;-66
2021/07/06 01:15:59;;;;;;;8.77;7.90;;;17.10;99.90;;;;;;5078229;28;20051;-66
2021/07/06 01:18:25;;;;;;;9.40;6.75;;;17.10;99.90;;;;;;5081705;28;20613;-65
2021/07/06 01:20:56;;;;;;;10.82;8.50;;;17.10;99.90;;;;;;5082543;28;20128;-65
2021/07/06 01:23:26;;;;;;;9.27;7.97;;;17.10;99.90;;;;;;5080576;28;20032;-65
2021/07/06 01:25:54;;;;;;;12.23;8.05;;;17.10;99.90;;;;;;5077872;28;20036;-65
2021/07/06 01:28:20;;;;;;;10.60;8.27;;;17.10;99.90;;;;;;5078172;28;20154;-65
2021/07/06 01:30:47;;;;;;;9.80;7.85;;;17.20;99.90;;;;;;5079402;28;20440;-66
2021/07/06 01:33:22;;;;;;;14.63;7.70;;;17.10;99.90;;;;;;5081678;28;20036;-66
2021/07/06 01:35:53;;;;;;;12.73;8.35;;;17.10;99.90;;;;;;5079368;28;20044;-65
2021/07/06 01:38:18;;;;;;;8.80;7.38;;;17.20;99.90;;;;;;5084261;28;20043;-66
2021/07/06 01:40:44;;;;;;;12.20;7.63;;;17.20;99.90;;;;;;5087599;28;20036;-65
2021/07/06 01:43:10;;;;;;;8.02;7.22;;;17.20;99.90;;;;;;5085720;28;20130;-65
2021/07/06 01:45:36;;;;;;;8.93;7.60;;;17.10;99.90;;;;;;5085257;28;20908;-65
2021/07/06 01:48:03;;;;;;;10.23;7.47;;;17.20;99.90;;;;;;5084086;28;20043;-65
2021/07/06 01:50:41;;;;;;;9.63;7.00;;;17.20;99.90;;;;;;5085536;28;20055;-65
2021/07/06 01:53:15;;;;;;;8.50;6.97;;;17.10;99.90;;;;;;5086418;28;20044;-65
2021/07/06 01:55:45;;;;;;;8.80;7.43;;;17.10;99.90;;;;;;5084696;28;20043;-65
2021/07/06 01:58:14;;;;;;;7.97;7.35;;;17.10;99.90;;;;;;5087487;28;20039;-65
2021/07/06 02:00:47;;;;;;;8.40;7.57;;;17.20;99.90;;;;;;5085875;28;20047;-65
2021/07/06 02:03:13;;;;;;;8.48;7.68;;;17.20;99.90;;;;;;5087160;28;20509;-65
2021/07/06 02:05:42;;;;;;;8.13;7.30;;;17.20;99.90;;;;;;5083962;28;20410;-65
2021/07/06 02:08:10;;;;;;;11.02;7.82;;;17.10;99.90;;;;;;5085086;28;20169;-65
2021/07/06 02:10:37;;;;;;;10.43;7.38;;;17.20;99.90;;;;;;5085471;28;20073;-65
2021/07/06 02:13:07;;;;;;;9.27;7.65;;;17.20;99.90;;;;;;5084089;28;20060;-65
2021/07/06 02:15:34;;;;;;;8.38;7.68;;;17.20;99.90;;;;;;5084363;28;20394;-65
2021/07/06 02:17:59;;;;;;;9.07;7.60;;;17.20;99.90;;;;;;5085136;28;20044;-65
2021/07/06 02:20:25;;;;;;;8.02;7.22;;;17.30;99.90;;;;;;5082946;28;20482;-65
2021/07/06 02:22:52;;;;;;;8.43;7.63;;;17.30;99.90;;;;;;5085089;28;20098;-65
2021/07/06 02:25:19;;;;;;;8.02;7.22;;;17.40;99.90;;;;;;5082831;28;20036;-65
2021/07/06 02:27:47;;;;;;;7.55;6.68;;;17.40;99.90;;;;;;5083603;28;20043;-65
2021/07/06 02:30:19;;;;;;;11.65;7.30;;;17.40;99.90;;;;;;5083011;28;20109;-65
2021/07/06 02:32:46;;;;;;;8.35;7.53;;;17.40;99.90;;;;;;5083398;28;20047;-65
2021/07/06 02:35:12;;;;;;;9.23;6.63;;;17.50;99.90;;;;;;5082866;28;20089;-66
2021/07/06 02:37:39;;;;;;;8.00;6.65;;;17.50;99.90;;;;;;5087379;28;20115;-65
2021/07/06 02:40:08;;;;;;;7.15;5.88;;;17.50;99.90;;;;;;5082566;28;20759;-66
2021/07/06 02:42:33;;;;;;;8.40;6.28;;;17.50;99.90;;;;;;5086031;28;20123;-66
2021/07/06 02:44:59;;;;;;;7.82;6.68;;;17.50;99.90;;;;;;5081423;28;20162;-65
2021/07/06 02:47:25;;;;;;;6.82;5.93;;;17.50;99.90;;;;;;5085430;28;20036;-65
2021/07/06 02:49:51;;;;;;;6.43;5.93;;;17.60;99.90;;;;;;5084476;28;20161;-66
2021/07/06 02:52:16;;;;;;;6.13;5.53;;;17.60;99.90;;;;;;5083987;28;20510;-66
2021/07/06 02:54:42;;;;;;;6.60;6.00;;;17.60;99.90;;;;;;5084114;28;20040;-65
2021/07/06 02:57:10;;;;;;;6.35;5.53;;;17.60;99.90;;;;;;5079930;28;20437;-66
2021/07/06 02:59:39;;;;;;;7.82;5.72;;;17.60;99.90;;;;;;5084048;28;20184;-66
2021/07/06 03:02:04;;;;;;;8.95;5.30;;;17.60;99.90;;;;;;5082734;28;20075;-65
2021/07/06 03:04:31;;;;;;;6.30;5.70;;;17.60;99.90;;;;;;5086658;28;20474;-65
2021/07/06 03:06:57;;;;;;;5.57;5.03;;;17.70;99.90;;;;;;5082028;28;20053;-65
2021/07/06 03:09:22;;;;;;;6.07;5.10;;;17.70;99.90;;;;;;5087036;28;20055;-65
2021/07/06 03:11:48;;;;;;;6.13;5.43;;;17.80;99.90;;;;;;5085165;28;20521;-65
2021/07/06 03:14:14;;;;;;;7.15;6.45;;;17.80;99.90;;;;;;5086318;28;20044;-65
2021/07/06 03:16:39;;;;;;;5.65;5.15;;;17.80;99.90;;;;;;5080614;28;20036;-66
2021/07/06 03:19:05;;;;;;;6.53;5.88;;;17.70;99.90;;;;;;5085396;28;20036;-65
2021/07/06 03:21:31;;;;;;;5.40;4.90;;;17.70;99.90;;;;;;5083544;28;20581;-65
2021/07/06 03:23:57;;;;;;;6.47;4.93;;;17.70;99.90;;;;;;5084988;28;20041;-65
2021/07/06 03:26:22;;;;;;;5.72;5.22;;;17.70;99.90;;;;;;5080281;28;21559;-65
2021/07/06 03:28:48;;;;;;;6.72;4.90;;;17.80;99.90;;;;;;5086235;28;20410;-65
2021/07/06 03:31:14;;;;;;;6.68;4.90;;;17.80;99.90;;;;;;5083868;28;20048;-65
2021/07/06 03:33:39;;;;;;;7.05;5.95;;;17.80;99.90;;;;;;5085714;28;20061;-66
2021/07/06 03:36:05;;;;;;;8.27;5.25;;;17.80;99.90;;;;;;5082054;28;20089;-65
2021/07/06 03:38:32;;;;;;;8.32;5.43;;;17.80;99.90;;;;;;5083243;28;20131;-65
2021/07/06 03:40:57;;;;;;;6.70;5.80;;;17.80;99.90;;;;;;5081753;28;20059;-65
2021/07/06 03:43:23;;;;;;;7.63;5.53;;;17.80;99.90;;;;;;5086187;28;20040;-65
2021/07/06 03:45:49;;;;;;;6.88;5.30;;;17.80;99.90;;;;;;5082305;28;20040;-65
2021/07/06 03:48:14;;;;;;;8.32;5.00;;;17.80;99.90;;;;;;5084204;28;20543;-65
2021/07/06 03:50:40;;;;;;;7.40;5.10;;;17.80;99.90;;;;;;5082564;28;20407;-66
2021/07/06 03:53:07;;;;;;;7.60;5.13;;;17.90;99.90;;;;;;5082825;28;20097;-66
2021/07/06 03:55:33;;;;;;;5.97;5.38;;;17.90;99.90;;;;;;5079681;28;20175;-65
2021/07/06 03:57:59;;;;;;;6.40;4.07;;;17.80;99.90;;;;;;5082894;28;20089;-65
2021/07/06 04:00:29;;;;;;;5.72;5.07;;;17.90;99.90;;;;;;5083419;28;20440;-66
2021/07/06 04:02:56;;;;;;;5.72;4.63;;;17.90;99.90;;;;;;5082857;28;20042;-66
2021/07/06 04:05:22;;;;;;;4.82;3.92;;;17.90;99.90;;;;;;5081295;28;20094;-66
2021/07/06 04:07:48;;;;;;;4.80;4.30;;;18.00;99.90;;;;;;5085488;28;20044;-65
2021/07/06 04:10:16;;;;;;;5.82;4.40;;;18.00;99.90;;;;;;5083255;28;20031;-66
2021/07/06 04:12:42;;;;;;;5.25;3.83;;;18.00;99.90;;;;;;5082653;28;20754;-65
2021/07/06 04:15:11;;;;;;;4.85;3.90;;;18.00;99.90;;;;;;5079220;28;20032;-65
2021/07/06 04:17:37;;;;;;;4.68;3.92;;;18.10;99.90;;;;;;5080950;28;20040;-66
2021/07/06 04:20:08;;;;;;;6.53;3.60;;;18.10;99.90;;;;;;5080917;28;20484;-65
2021/07/06 04:22:34;;;;;;;3.78;3.20;;;18.10;99.90;;;;;;5082478;28;20045;-65
2021/07/06 04:25:00;;;;;;;4.05;3.40;;;18.10;99.90;;;;;;5079001;28;20993;-65
2021/07/06 04:27:26;;;;;;;4.13;2.95;;;18.20;99.90;;;;;;5079414;28;20044;-66
2021/07/06 04:29:53;;;;;;;3.90;2.78;;;18.20;99.90;;;;;;5081674;28;20043;-66
2021/07/06 04:32:19;;;;;;;3.25;2.65;;;18.10;99.90;;;;;;5083324;28;20045;-66
2021/07/06 04:34:45;;;;;;;3.67;3.03;;;18.20;99.90;;;;;;5083054;28;20040;-65
2021/07/06 04:37:15;;;;;;;4.55;2.60;;;18.20;99.90;;;;;;5084136;28;20044;-66
2021/07/06 04:39:41;;;;;;;5.32;2.92;;;18.20;99.90;;;;;;5084809;28;20044;-66
2021/07/06 04:42:07;;;;;;;3.67;2.55;;;18.20;99.90;;;;;;5082025;28;20036;-66
2021/07/06 04:44:33;;;;;;;5.32;2.17;;;18.30;99.90;;;;;;5081304;28;20046;-66
2021/07/06 04:46:59;;;;;;;4.60;2.10;;;18.30;99.90;;;;;;5076046;28;20044;-66
2021/07/06 04:49:27;;;;;;;2.45;2.22;;;18.30;99.90;;;;;;5077535;28;20036;-66
2021/07/06 04:51:54;;;;;;;4.50;2.20;;;18.40;99.90;;;;;;5081923;28;20055;-64
2021/07/06 04:54:23;;;;;;;9.23;2.80;;;18.40;99.90;;;;;;5083954;28;20052;-66
2021/07/06 04:56:51;;;;;;;3.17;1.83;;;18.40;99.90;;;;;;5079164;28;20051;-66
2021/07/06 04:59:21;;;;;;;3.67;1.23;;;18.50;99.90;;;;;;5084627;28;20040;-66
2021/07/06 05:01:47;;;;;;;2.08;1.30;;;18.50;99.90;;;;;;5083152;28;20050;-66
2021/07/06 05:04:13;;;;;;;1.92;1.27;;;18.80;99.90;;;;;;5081784;28;20130;-66
2021/07/06 05:06:40;;;;;;;1.77;0.80;;;18.90;99.90;;;;;;5081048;28;20067;-66
2021/07/06 05:09:06;;;;;;;4.95;1.00;;;19.50;99.90;;;;;;5084429;28;20165;-66
2021/07/06 05:11:32;;;;;;;3.45;0.85;;;19.80;99.90;;;;;;5075704;28;20040;-66
2021/07/06 05:13:57;;;;;;;2.88;0.90;;;20.00;99.90;;;;;;5077734;28;20047;-66
2021/07/06 05:16:23;;;;;;;1.40;0.75;;;20.30;99.90;;;;;;5075537;28;20754;-66
2021/07/06 05:18:49;;;;;;;5.90;0.93;;;20.60;99.90;;;;;;5079953;28;20040;-66
2021/07/06 05:21:16;;;;;;;1.77;0.45;;;20.80;99.90;;;;;;5078144;28;20036;-66
2021/07/06 05:23:42;;;;;;;3.60;1.05;;;21.10;99.90;;;;;;5076579;28;20036;-66
2021/07/06 05:26:09;;;;;;;2.88;0.50;;;21.20;99.90;;;;;;5071088;28;20490;-66
2021/07/06 05:28:35;;;;;;;4.68;0.70;;;21.40;99.90;;;;;;5078489;28;20048;-66
2021/07/06 05:31:03;;;;;;;5.75;1.52;;;21.50;99.90;;;;;;5076142;28;20047;-66
2021/07/06 05:33:29;;;;;;;2.15;0.70;;;21.50;99.90;;;;;;5078273;28;20041;-66
2021/07/06 05:35:54;;;;;;;5.30;0.90;;;21.40;99.90;;;;;;5074692;28;20104;-66
2021/07/06 05:38:20;;;;;;;1.92;0.80;;;21.10;99.90;;;;;;5078955;28;20261;-66
2021/07/06 05:40:53;;;;;;;2.22;0.70;;;20.90;99.90;;;;;;5074265;28;20086;-66
2021/07/06 05:43:20;;;;;;;4.00;0.63;;;20.70;99.90;;;;;;5076796;28;20029;-67
2021/07/06 05:45:45;;;;;;;2.50;0.77;;;20.60;99.90;;;;;;5074613;28;20047;-67
2021/07/06 05:48:11;;;;;;;1.15;0.40;;;20.50;99.90;;;;;;5095291;28;20348;-66
2021/07/06 05:50:37;;;;;;;3.88;0.73;;;20.40;99.90;;;;;;5080245;28;20039;-66
2021/07/06 05:53:04;;;;;;;3.67;0.80;;;20.40;99.90;;;;;;5076582;28;20036;-66
2021/07/06 05:55:29;;;;;;;4.40;0.80;;;20.30;99.90;;;;;;5074649;28;20082;-66
2021/07/06 05:57:55;;;;;;;2.13;1.00;;;20.10;99.90;;;;;;5078132;28;20478;-66
2021/07/06 06:00:21;;;;;;;6.03;0.90;;;19.90;99.90;;;;;;5075722;28;20043;-66
2021/07/06 06:02:47;;;;;;;3.53;0.70;;;20.00;99.90;;;;;;5075251;28;20097;-66
2021/07/06 06:05:13;;;;;;;3.38;1.10;;;19.80;99.90;;;;;;5070300;28;20033;-66
2021/07/06 06:07:41;;;;;;;2.95;0.70;;;19.70;99.90;;;;;;5075451;28;20358;-66
2021/07/06 06:10:09;;;;;;;2.17;0.88;;;19.50;99.90;;;;;;5076793;28;20040;-66
2021/07/06 06:12:36;;;;;;;4.45;1.00;;;19.60;99.90;;;;;;5077006;28;20118;-66
2021/07/06 06:15:02;;;;;;;3.08;1.00;;;19.50;99.90;;;;;;5072492;28;20044;-66
2021/07/06 06:17:28;;;;;;;2.55;0.52;;;19.40;99.90;;;;;;5076959;28;20044;-66
2021/07/06 06:19:54;;;;;;;4.07;0.85;;;19.30;99.90;;;;;;5076607;28;20081;-66
2021/07/06 06:22:20;;;;;;;2.70;0.70;;;19.30;99.90;;;;;;5074987;28;20133;-66
2021/07/06 06:24:45;;;;;;;5.75;0.90;;;19.30;99.90;;;;;;5077875;28;21739;-66
2021/07/06 06:27:12;;;;;;;2.25;0.60;;;19.40;99.90;;;;;;5081353;28;20035;-66
2021/07/06 06:29:38;;;;;;;2.22;1.08;;;19.40;99.90;;;;;;5080891;28;20104;-66
2021/07/06 06:32:04;;;;;;;2.70;0.85;;;19.30;99.90;;;;;;5079806;28;20525;-66
2021/07/06 06:34:30;;;;;;;1.90;0.80;;;19.30;99.90;;;;;;5079650;28;20108;-66
2021/07/06 06:36:56;;;;;;;1.15;0.75;;;19.30;99.90;;;;;;5079066;28;20044;-66
2021/07/06 06:39:23;;;;;;;4.90;0.90;;;19.30;99.90;;;;;;5080101;28;20642;-66
2021/07/06 06:41:49;;;;;;;3.13;0.85;;;19.30;99.90;;;;;;5078004;28;20044;-66
2021/07/06 06:44:15;;;;;;;2.80;0.68;;;19.20;99.90;;;;;;5078707;28;20432;-66
2021/07/06 06:46:41;;;;;;;2.90;0.90;;;19.20;99.90;;;;;;5075265;28;20041;-66
2021/07/06 06:49:07;;;;;;;4.93;1.45;;;19.20;99.90;;;;;;5078383;28;20032;-66
2021/07/06 06:51:32;;;;;;;2.70;0.80;;;19.30;99.90;;;;;;5082727;28;20048;-66
2021/07/06 06:53:59;;;;;;;3.65;1.00;;;19.20;99.90;;;;;;5077920;28;20046;-66
2021/07/06 06:56:25;;;;;;;3.10;1.13;;;19.20;99.90;;;;;;5079296;28;20478;-66
2021/07/06 06:58:51;;;;;;;3.35;0.90;;;19.30;99.90;;;;;;5080822;28;20043;-66
2021/07/06 07:01:17;;;;;;;2.85;0.80;;;19.20;99.90;;;;;;5094353;28;20638;-66
2021/07/06 07:03:42;;;;;;;3.75;0.98;;;19.20;99.90;;;;;;5082467;28;20044;-66
2021/07/06 07:06:08;;;;;;;1.08;0.80;;;19.20;99.90;;;;;;5079894;28;20046;-66
2021/07/06 07:08:34;;;;;;;5.18;0.80;;;19.30;99.90;;;;;;5079882;28;20079;-66
2021/07/06 07:11:00;;;;;;;3.20;0.88;;;19.30;99.90;;;;;;5080784;28;20040;-66
2021/07/06 07:13:27;;;;;;;2.08;0.75;;;19.40;99.90;;;;;;5081591;28;20135;-66
2021/07/06 07:15:53;;;;;;;6.05;1.00;;;19.50;99.90;;;;;;5075420;28;20033;-66
2021/07/06 07:18:19;;;;;;;6.22;1.20;;;19.50;99.90;;;;;;5081279;28;20044;-66
2021/07/06 07:20:45;;;;;;;5.03;1.10;;;19.50;99.90;;;;;;5081218;28;20044;-66
2021/07/06 07:23:11;;;;;;;2.65;1.30;;;19.60;99.90;;;;;;5078514;28;20036;-66
2021/07/06 07:25:36;;;;;;;7.22;1.48;;;19.60;99.90;;;;;;5079019;28;20998;-66
2021/07/06 07:28:03;;;;;;;1.38;0.60;;;19.70;99.90;;;;;;5081401;28;20028;-66
2021/07/06 07:30:29;;;;;;;10.32;1.30;;;19.80;99.90;;;;;;5077966;28;20372;-66
2021/07/06 07:32:54;;;;;;;2.70;0.80;;;19.70;99.90;;;;;;5080150;28;20142;-66
2021/07/06 07:35:20;;;;;;;3.58;0.80;;;19.80;99.90;;;;;;5078084;28;20068;-66
2021/07/06 07:37:46;;;;;;;3.50;1.23;;;19.80;99.90;;;;;;5079952;28;20466;-66
2021/07/06 07:40:14;;;;;;;5.20;0.90;;;19.90;99.90;;;;;;5081228;28;20097;-66
2021/07/06 07:42:40;;;;;;;2.17;1.02;;;19.90;99.90;;;;;;5080797;28;20485;-66
2021/07/06 07:45:06;;;;;;;2.78;0.93;;;19.90;99.90;;;;;;5076656;28;20048;-66
2021/07/06 07:47:32;;;;;;;3.88;0.90;;;20.00;99.90;;;;;;5080627;28;20032;-66
2021/07/06 07:49:58;;;;;;;2.10;1.30;;;20.00;99.90;;;;;;5078918;28;20037;-66
2021/07/06 07:52:24;;;;;;;1.95;1.00;;;20.10;99.90;;;;;;5080111;28;20063;-66
2021/07/06 07:54:50;;;;;;;3.67;1.00;;;20.10;99.90;;;;;;5078997;28;20462;-66
2021/07/06 07:57:23;;;;;;;3.55;0.90;;;20.20;99.90;;;;;;5079764;28;20039;-66
2021/07/06 07:59:54;;;;;;;3.47;1.20;;;20.20;99.90;;;;;;5079723;28;20775;-66
2021/07/06 08:02:21;;;;;;;5.82;1.08;;;20.40;99.90;;;;;;5079122;28;20450;-66
2021/07/06 08:04:47;;;;;;;2.13;1.00;;;20.50;99.90;;;;;;5077768;28;20126;-66
2021/07/06 08:07:13;;;;;;;3.70;0.88;;;20.50;99.90;;;;;;5081379;28;20535;-66
2021/07/06 08:09:39;;;;;;;4.47;1.00;;;20.60;99.90;;;;;;5078111;28;20036;-66
2021/07/06 08:12:06;;;;;;;1.67;0.85;;;20.60;99.90;;;;;;5082199;28;20040;-66
2021/07/06 08:14:32;;;;;;;3.45;1.20;;;20.70;99.90;;;;;;5081787;28;20032;-66
2021/07/06 08:16:58;;;;;;;3.35;0.90;;;20.70;99.90;;;;;;5078531;28;20040;-66
2021/07/06 08:19:25;;;;;;;9.68;1.00;;;20.70;99.90;;;;;;5081488;28;20104;-67
2021/07/06 08:21:51;;;;;;;5.55;1.20;;;20.70;99.90;;;;;;5079137;28;20044;-66
2021/07/06 08:24:18;;;;;;;4.70;1.00;;;20.70;99.90;;;;;;5078869;28;21630;-66
2021/07/06 08:26:46;;;;;;;5.30;1.10;;;20.70;99.90;;;;;;5076746;28;20097;-66
2021/07/06 08:29:13;;;;;;;2.30;1.20;;;20.70;99.90;;;;;;5079802;28;20162;-66
2021/07/06 08:31:39;;;;;;;2.67;1.00;;;20.70;99.90;;;;;;5076119;28;20039;-66
2021/07/06 08:34:04;;;;;;;2.15;0.75;;;20.70;99.90;;;;;;5080918;28;21147;-66
2021/07/06 08:36:30;;;;;;;4.00;0.80;;;20.80;99.90;;;;;;5078045;28;20126;-66
2021/07/06 08:38:56;;;;;;;4.63;1.00;;;20.90;99.90;;;;;;5079462;28;20364;-66
2021/07/06 08:41:22;;;;;;;1.20;1.05;;;21.10;99.90;;;;;;5079281;28;20092;-66
2021/07/06 08:43:51;;;;;;;2.65;1.02;;;21.20;99.90;;;;;;5077716;28;20041;-66
2021/07/06 08:46:19;;;;;;;1.30;0.68;;;21.20;99.90;;;;;;5075371;28;20040;-66
2021/07/06 08:48:47;;;;;;;2.00;0.75;;;21.30;99.90;;;;;;5077530;28;20134;-66
2021/07/06 08:51:19;;;;;;;3.00;1.20;;;21.50;99.90;;;;;;5077528;28;20460;-66
2021/07/06 08:53:49;;;;;;;3.00;0.93;;;21.50;99.90;;;;;;5080048;28;20036;-66
2021/07/06 08:56:15;;;;;;;1.67;1.00;;;21.50;99.90;;;;;;5074992;28;20478;-66
2021/07/06 08:58:41;;;;;;;8.55;1.40;;;21.50;99.90;;;;;;5079005;28;20059;-66
2021/07/06 09:01:07;;;;;;;1.73;1.00;;;21.50;99.90;;;;;;5079873;28;20032;-66
2021/07/06 09:03:53;;;;;;;1.95;0.70;;;21.50;99.90;;;;;;5079774;28;20036;-66
2021/07/06 09:06:23;;;;;;;4.10;0.85;;;21.60;99.90;;;;;;5075269;28;20043;-67
2021/07/06 09:08:52;;;;;;;3.22;0.80;;;21.60;99.90;;;;;;5080518;28;20060;-66
2021/07/06 09:11:19;;;;;;;1.75;0.82;;;21.60;99.90;;;;;;5080573;28;20508;-67
2021/07/06 09:13:45;;;;;;;3.38;0.73;;;21.70;99.90;;;;;;5078830;28;20032;-66
2021/07/06 09:16:23;;;;;;;2.53;0.60;;;21.90;99.90;;;;;;5074937;28;20058;-67
2021/07/06 09:18:49;;;;;;;5.10;0.93;;;22.10;99.90;;;;;;5077947;28;20032;-66
2021/07/06 09:21:16;;;;;;;4.47;0.90;;;22.20;99.90;;;;;;5077947;28;20393;-66
2021/07/06 09:23:46;;;;;;;1.73;0.73;;;22.40;99.90;;;;;;5078652;28;20071;-66
2021/07/06 09:26:17;;;;;;;4.65;0.70;;;22.60;99.30;;;;;;5076903;28;20032;-66
2021/07/06 09:28:54;;;;;;;5.55;0.77;;;22.70;98.80;;;;;;5076441;28;20028;-67
2021/07/06 09:31:34;;;;;;;2.25;0.60;;;22.90;97.90;;;;;;5079636;28;20113;-66
2021/07/06 09:34:12;;;;;;;4.22;0.50;;;23.00;97.50;;;;;;5078051;28;20036;-67
2021/07/06 09:36:37;;;;;;;1.60;0.73;;;23.20;96.10;;;;;;5076037;28;20120;-66
2021/07/06 09:39:15;;;;;;;3.40;0.75;;;23.40;95.90;;;;;;5079157;28;20059;-66
2021/07/06 09:41:51;;;;;;;6.53;0.47;;;23.50;96.60;;;;;;5078456;28;20040;-67
2021/07/06 09:44:18;;;;;;;4.72;0.77;;;23.50;95.10;;;;;;5080457;28;20044;-68
2021/07/06 09:46:46;;;;;;;6.30;0.63;;;23.50;95.70;;;;;;5077937;28;20044;-67
2021/07/06 09:49:16;;;;;;;2.42;0.60;;;23.70;96.80;;;;;;5077137;28;20085;-66
2021/07/06 09:51:42;;;;;;;8.98;1.13;;;23.60;95.60;;;;;;5077128;28;20039;-66
2021/07/06 09:54:08;;;;;;;11.85;1.20;;;23.60;94.90;;;;;;5077338;28;20458;-67
2021/07/06 09:56:43;;;;;;;0.75;0.40;;;23.70;94.20;;;;;;5076081;28;20036;-66
2021/07/06 09:59:14;;;;;;;4.45;0.82;;;23.70;94.50;;;;;;5083367;28;20086;-66
2021/07/06 10:01:55;;;;;;;1.80;0.50;;;23.70;94.10;;;;;;5079641;28;20509;-67
2021/07/06 10:04:25;;;;;;;5.47;1.52;;;23.60;95.50;;;;;;5082450;28;20105;-69
2021/07/06 10:06:51;;;;;;;11.30;0.85;;;23.50;94.70;;;;;;5076738;28;20039;-67
2021/07/06 10:09:18;;;;;;;5.47;0.93;;;23.70;95.00;;;;;;5082170;28;20368;-68
2021/07/06 10:11:44;;;;;;;3.13;0.50;;;23.50;94.90;;;;;;5083839;28;20135;-67
2021/07/06 10:14:10;;;;;;;11.48;1.15;;;23.40;94.80;;;;;;5083564;28;20559;-67
2021/07/06 10:16:37;;;;;;;7.47;0.45;;;23.20;94.90;;;;;;5080223;28;20040;-67
2021/07/06 10:19:04;;;;;;;2.28;1.13;;;23.20;96.00;;;;;;5080843;28;20390;-67
2021/07/06 10:21:29;;;;;;;3.75;0.50;;;23.30;95.80;;;;;;5083243;28;20032;-67
2021/07/06 10:23:56;;;;;;;4.10;0.40;;;23.60;95.80;;;;;;5080296;28;20028;-67
2021/07/06 10:26:29;;;;;;;19.08;1.75;;;23.80;95.70;;;;;;5079198;28;20397;-67
2021/07/06 10:28:55;;;;;;;2.33;0.57;;;24.10;94.00;;;;;;5080556;28;20041;-67
2021/07/06 10:31:22;;;;;;;1.98;0.30;;;24.00;92.80;;;;;;5080883;28;20040;-67
2021/07/06 10:33:49;;;;;;;1.98;0.85;;;23.90;93.10;;;;;;5081569;28;20051;-67
2021/07/06 10:36:16;;;;;;;26.05;1.27;;;23.50;93.20;;;;;;5079666;28;20112;-67
2021/07/06 10:38:58;;;;;;;1.85;0.85;;;23.30;93.70;;;;;;5081347;28;20131;-67
2021/07/06 10:41:36;;;;;;;3.45;0.82;;;23.00;95.00;;;;;;5083395;28;20475;-66
2021/07/06 10:44:04;;;;;;;1.92;0.40;;;23.00;95.00;;;;;;5081511;28;20093;-67
2021/07/06 10:46:43;;;;;;;6.43;0.70;;;23.00;94.60;;;;;;5076462;28;20040;-67
2021/07/06 10:49:15;;;;;;;13.77;1.30;;;23.10;95.70;;;;;;5079737;28;20039;-67
2021/07/06 10:51:41;;;;;;;29.38;3.13;;;23.30;93.80;;;;;;5081152;28;20036;-67
2021/07/06 10:54:19;;;;;;;6.50;0.85;;;23.50;92.90;;;;;;5083313;28;20042;-67
2021/07/06 10:56:47;;;;;;;3.83;1.58;;;23.70;93.10;;;;;;5080045;28;20032;-67
2021/07/06 10:59:23;;;;;;;12.95;1.17;;;23.90;94.20;;;;;;5079196;28;20043;-67
2021/07/06 11:01:49;;;;;;;5.95;0.65;;;24.00;93.40;;;;;;5081458;28;20118;-67
2021/07/06 11:07:07;;;;;;;2.90;0.68;;;24.10;91.50;;;;;;5080243;28;20555;-68
2021/07/06 11:09:35;;;;;;;23.27;2.40;;;24.10;91.50;;;;;;5081809;28;20039;-67
2021/07/06 11:12:24;;;;;;;35.35;1.75;;;24.20;91.20;;;;;;5081065;28;20048;-67
2021/07/06 11:15:13;;;;;;;7.97;0.50;;;24.30;91.70;;;;;;5077674;28;20401;-67
2021/07/06 11:17:39;;;;;;;18.20;1.23;;;24.10;90.20;;;;;;5074771;28;20436;-67
2021/07/06 11:20:29;;;;;;;16.20;1.00;;;23.90;90.40;;;;;;5080895;28;20065;-67
2021/07/06 11:22:57;;;;;;;8.00;0.75;;;23.70;91.00;;;;;;5076942;28;20037;-67
2021/07/06 11:25:34;;;;;;;6.40;0.80;;;23.70;93.00;;;;;;5078126;28;20036;-67
2021/07/06 11:28:00;;;;;;;16.27;1.25;;;23.80;92.30;;;;;;5080996;28;20137;-67
2021/07/06 11:30:30;;;;;;;13.73;1.00;;;24.00;91.10;;;;;;5080715;28;20043;-67
2021/07/06 11:33:18;;;;;;;4.13;0.50;;;24.30;91.30;;;;;;5082969;28;20059;-69
2021/07/06 11:35:48;;;;;;;7.60;0.90;;;24.40;89.80;;;;;;5080445;28;20052;-68
2021/07/06 11:38:22;;;;;;;4.95;0.80;;;24.30;89.20;;;;;;5080820;28;20098;-67
2021/07/06 11:40:57;;;;;;;2.85;0.80;;;24.20;89.60;;;;;;5078613;28;20071;-67
2021/07/06 11:43:26;;;;;;;3.28;0.50;;;24.20;89.40;;;;;;5079817;28;20036;-67
2021/07/06 11:46:01;;;;;;;6.30;0.98;;;24.40;90.30;;;;;;5075404;28;20112;-67
2021/07/06 11:48:28;;;;;;;3.92;0.65;;;24.40;88.90;;;;;;5081007;28;20143;-67
2021/07/06 11:50:55;;;;;;;8.75;0.50;;;24.50;90.60;;;;;;5077117;28;20490;-67
2021/07/06 11:53:24;;;;;;;3.88;0.52;;;24.60;91.20;;;;;;5078869;28;20087;-67
2021/07/06 11:55:50;;;;;;;4.00;0.60;;;24.70;90.00;;;;;;5077672;28;20050;-67
2021/07/06 11:58:23;;;;;;;1.45;0.32;;;24.90;88.80;;;;;;5080442;28;20051;-68
2021/07/06 12:00:49;;;;;;;11.15;0.82;;;25.00;81.50;;;;;;5081188;28;20032;-67
2021/07/06 12:03:25;;;;;;;9.07;0.65;;;24.70;81.70;;;;;;5080237;28;20090;-67
2021/07/06 12:05:55;;;;;;;16.52;1.52;;;24.40;82.90;;;;;;5078248;28;20032;-67
2021/07/06 12:08:26;;;;;;;5.95;1.02;;;24.20;85.80;;;;;;5079922;28;20105;-67
2021/07/06 12:10:57;;;;;;;4.60;0.52;;;23.90;88.10;;;;;;5081452;28;20078;-67
2021/07/06 12:13:24;;;;;;;4.35;0.50;;;23.80;86.70;;;;;;5078982;28;20043;-67
2021/07/06 12:15:52;;;;;;;3.83;0.70;;;23.70;89.30;;;;;;5079393;28;20163;-67
2021/07/06 12:18:18;;;;;;;6.47;1.20;;;23.50;89.60;;;;;;5077110;28;20044;-67
2021/07/06 12:20:53;;;;;;;8.95;0.73;;;23.30;90.00;;;;;;5080290;28;20067;-67
2021/07/06 12:23:20;;;;;;;5.85;0.85;;;23.20;91.20;;;;;;5075452;28;20064;-67
2021/07/06 12:25:46;;;;;;;3.33;0.60;;;23.20;90.90;;;;;;5073239;28;20040;-67
2021/07/06 12:28:12;;;;;;;9.52;1.25;;;23.30;90.70;;;;;;5074958;28;20044;-67
2021/07/06 12:30:37;;;;;;;7.50;0.95;;;23.20;90.20;;;;;;5077511;28;20104;-67
2021/07/06 12:33:06;;;;;;;6.60;0.50;;;23.10;90.70;;;;;;5080160;28;20040;-67
2021/07/06 12:35:32;;;;;;;9.85;0.80;;;22.90;90.20;;;;;;5075738;28;20110;-67
2021/07/06 12:38:02;;;;;;;10.10;0.90;;;22.90;88.60;;;;;;5075462;28;20176;-67
2021/07/06 12:40:29;;;;;;;5.32;0.80;;;22.70;90.40;;;;;;5077833;28;20112;-67
2021/07/06 12:42:56;;;;;;;9.43;1.15;;;22.70;91.50;;;;;;5079892;28;20044;-67
2021/07/06 12:45:22;;;;;;;7.93;0.82;;;23.10;90.80;;;;;;5076648;28;20043;-67
2021/07/06 12:47:48;;;;;;;7.82;1.00;;;23.20;90.40;;;;;;5078231;28;20119;-67
2021/07/06 12:50:19;;;;;;;6.22;0.82;;;23.20;89.10;;;;;;5078471;28;21443;-67